LIRN/NAP METAR and TAF weather

Enter ICAO airport designator
Station Type Date Time Source
LIRN METAR 2022/06/28 15:20 UTC NOAA

LIRN 281520Z 23006KT 160V270 CAVOK 36/11 Q1014 NOSIG


Station Type Date Time Source
LIRN Decoded METAR 2022/06/28 15:20 UTC NOAA

Napoli / Capodichino, Italy (LIRN) 40-51N 014-18E 72M
Jun 28, 2022 - 11:20 AM EDT / 2022.06.28 1520 UTC
Wind: from the SW (230 degrees) at 7 MPH (6 KT) (direction variable):0
Visibility: greater than 7 mile(s):0
Temperature: 96 F (36 C)
Dew Point: 51 F (11 C)
Relative Humidity: 22%
Pressure (altimeter): 29.94 in. Hg (1014 hPa)
ob: LIRN 281520Z 23006KT 160V270 CAVOK 36/11 Q1014 NOSIG
cycle: 15

Station Type Date Time Source
LIRN TAF 2022/06/28 12:21 UTC NOAA

TAF LIRN 281100Z 2812/2912 23010KT 9999 FEW030
BECMG 2818/2820 VRB05KT
BECMG 2909/2911 23010KT

Example: see airport list